Time;durP1;ratioP1;P1;durP2;ratioP2;P2;SDS_P1;SDS_P2;PMS_P1;PMS_P2;Temp;Humidity;BMP_temperature;BMP_pressure;BME280_temperature;BME280_humidity;BME280_pressure;Samples;Min_cycle;Max_cycle;Signal;HPM_P1;HPM_P2
2022/03/19 00:00:42;;;;;;;;;;;13.40;99.90;;;;;;6244876;23;20237;-72
2022/03/19 00:03:08;;;;;;;;;;;13.40;99.90;;;;;;6245139;23;19912;-71
2022/03/19 00:05:34;;;;;;;;;;;13.40;99.90;;;;;;6217789;23;19931;-70
2022/03/19 00:08:01;;;;;;;;;;;13.40;99.90;;;;;;6245257;23;19904;-71
2022/03/19 00:10:26;;;;;;;;;;;13.40;99.90;;;;;;6245001;23;20240;-70
2022/03/19 00:12:53;;;;;;;;;;;13.40;99.90;;;;;;6243834;23;19995;-71
2022/03/19 00:15:19;;;;;;;;;;;13.40;99.90;;;;;;6245585;23;20213;-70
2022/03/19 00:17:46;;;;;;;;;;;13.40;99.90;;;;;;6243989;23;19904;-72
2022/03/19 00:20:12;;;;;;;;;;;13.40;99.90;;;;;;6242909;23;19984;-72
2022/03/19 00:22:38;;;;;;;;;;;13.40;99.90;;;;;;6243484;23;19954;-70
2022/03/19 00:25:04;;;;;;;;;;;13.30;99.90;;;;;;6243438;23;19907;-70
2022/03/19 00:27:30;;;;;;;;;;;13.30;99.90;;;;;;6244177;23;19908;-71
2022/03/19 00:29:56;;;;;;;;;;;13.30;99.90;;;;;;6244434;23;19923;-70
2022/03/19 00:32:22;;;;;;;;;;;13.30;99.90;;;;;;6244850;23;19904;-72
2022/03/19 00:34:48;;;;;;;;;;;13.20;99.90;;;;;;6244691;23;19908;-72
2022/03/19 00:37:14;;;;;;;;;;;13.20;99.90;;;;;;6244636;23;19904;-71
2022/03/19 00:39:39;;;;;;;;;;;13.20;99.90;;;;;;6244701;23;19915;-72
2022/03/19 00:42:05;;;;;;;;;;;13.20;99.90;;;;;;6244485;23;20247;-71
2022/03/19 00:44:31;;;;;;;;;;;13.10;99.90;;;;;;6244657;23;19903;-71
2022/03/19 00:46:57;;;;;;;;;;;13.10;99.90;;;;;;6244499;23;19949;-71
2022/03/19 00:49:23;;;;;;;;;;;13.10;99.90;;;;;;6244896;23;19923;-71
2022/03/19 00:51:48;;;;;;;;;;;13.10;99.90;;;;;;6244492;23;19915;-70
2022/03/19 00:54:15;;;;;;;;;;;13.20;99.90;;;;;;6244571;23;19923;-70
2022/03/19 00:56:42;;;;;;;;;;;13.20;99.90;;;;;;6217329;23;19904;-72
2022/03/19 00:59:08;;;;;;;;;;;13.20;99.90;;;;;;6244484;23;19999;-71
2022/03/19 01:01:35;;;;;;;;;;;13.20;99.90;;;;;;6216824;23;19904;-72
2022/03/19 01:04:25;;;;;;;;;;;13.10;99.90;;;;;;6244224;23;19904;-72
2022/03/19 01:06:51;;;;;;;;;;;13.20;99.90;;;;;;6217089;23;19903;-72
2022/03/19 01:09:17;;;;;;;;;;;13.20;99.90;;;;;;6244528;23;19911;-73
2022/03/19 01:11:43;;;;;;;;;;;13.20;99.90;;;;;;6244363;23;19903;-72
2022/03/19 01:14:09;;;;;;;;;;;13.20;99.90;;;;;;6244107;23;19910;-72
2022/03/19 01:16:34;;;;;;;;;;;13.20;99.90;;;;;;6244003;23;19951;-71
2022/03/19 01:19:00;;;;;;;;;;;13.10;99.90;;;;;;6244167;23;19904;-71
2022/03/19 01:21:26;;;;;;;;;;;13.10;99.90;;;;;;6243840;23;19994;-71
2022/03/19 01:23:52;;;;;;;;;;;13.10;99.90;;;;;;6244008;23;19903;-71
2022/03/19 01:26:18;;;;;;;;;;;13.10;99.90;;;;;;6244609;23;19955;-71
2022/03/19 01:28:46;;;;;;;;;;;13.10;99.90;;;;;;6243957;23;20308;-73
2022/03/19 01:31:12;;;;;;;;;;;13.10;99.90;;;;;;6244383;23;19903;-71
2022/03/19 01:33:38;;;;;;;;;;;13.10;99.90;;;;;;6245869;23;19973;-70
2022/03/19 01:36:04;;;;;;;;;;;13.10;99.90;;;;;;6246311;23;19998;-72
2022/03/19 01:38:30;;;;;;;;;;;13.10;99.90;;;;;;6246001;23;19914;-72
2022/03/19 01:40:55;;;;;;;;;;;13.10;99.90;;;;;;6218923;23;19903;-72
2022/03/19 01:43:21;;;;;;;;;;;13.00;99.90;;;;;;6218878;23;19911;-72
2022/03/19 01:45:48;;;;;;;;;;;13.00;99.90;;;;;;6246403;23;19904;-73
2022/03/19 01:48:13;;;;;;;;;;;13.00;99.90;;;;;;6245896;23;19949;-71
2022/03/19 01:50:39;;;;;;;;;;;13.00;99.90;;;;;;6245950;23;19907;-70
2022/03/19 01:53:05;;;;;;;;;;;12.90;99.90;;;;;;6245866;23;20313;-72
2022/03/19 01:55:31;;;;;;;;;;;12.90;99.90;;;;;;6245854;23;19904;-71
2022/03/19 01:57:58;;;;;;;;;;;12.80;99.90;;;;;;6218789;23;19911;-72
2022/03/19 02:00:24;;;;;;;;;;;12.90;99.90;;;;;;6246405;23;19958;-71
2022/03/19 02:02:51;;;;;;;;;;;12.90;99.90;;;;;;6246213;23;19903;-71
2022/03/19 02:05:18;;;;;;;;;;;12.90;99.90;;;;;;6245708;23;19907;-71
2022/03/19 02:07:45;;;;;;;;;;;12.90;99.90;;;;;;6245818;23;20305;-71
2022/03/19 02:10:11;;;;;;;;;;;12.80;99.90;;;;;;6245622;23;19965;-70
2022/03/19 02:12:37;;;;;;;;;;;12.80;99.90;;;;;;6245673;23;20340;-71
2022/03/19 02:15:04;;;;;;;;;;;12.90;99.90;;;;;;6246035;23;19904;-71
2022/03/19 02:17:30;;;;;;;;;;;12.80;99.90;;;;;;6245974;23;19912;-71
2022/03/19 02:19:56;;;;;;;;;;;12.80;99.90;;;;;;6245779;23;20296;-71
2022/03/19 02:22:22;;;;;;;;;;;12.80;99.90;;;;;;6246213;23;19961;-71
2022/03/19 02:27:34;;;;;;;;;;;12.80;99.90;;;;;;6245959;23;19910;-71
2022/03/19 02:33:02;;;;;;;;;;;12.80;99.90;;;;;;6245726;23;19910;-73
2022/03/19 02:35:28;;;;;;;;;;;12.80;99.90;;;;;;6245923;23;19904;-70
2022/03/19 02:37:54;;;;;;;;;;;12.80;99.90;;;;;;6246097;23;19998;-70
2022/03/19 02:40:45;;;;;;;;;;;12.80;99.90;;;;;;6218289;23;19903;-71
2022/03/19 02:43:10;;;;;;;;;;;12.80;99.90;;;;;;6245460;23;19965;-71
2022/03/19 02:45:36;;;;;;;;;;;12.80;99.90;;;;;;6246177;23;19951;-70
2022/03/19 02:48:02;;;;;;;;;;;12.80;99.90;;;;;;6245685;23;19904;-71
2022/03/19 02:50:35;;;;;;;;;;;12.80;99.90;;;;;;6245951;23;19970;-71
2022/03/19 02:53:05;;;;;;;;;;;12.70;99.90;;;;;;6245359;23;19903;-71
2022/03/19 02:55:32;;;;;;;;;;;12.80;99.90;;;;;;6245914;23;19904;-73
2022/03/19 02:57:58;;;;;;;;;;;12.80;99.90;;;;;;6245391;23;19997;-73
2022/03/19 03:00:24;;;;;;;;;;;12.80;99.90;;;;;;6245806;23;19942;-71
2022/03/19 03:02:49;;;;;;;;;;;12.80;99.90;;;;;;6245499;23;19904;-73
2022/03/19 03:05:15;;;;;;;;;;;12.80;99.90;;;;;;6245363;23;19904;-71
2022/03/19 03:07:41;;;;;;;;;;;12.80;99.90;;;;;;6245311;23;19903;-72
2022/03/19 03:10:08;;;;;;;;;;;12.80;99.90;;;;;;6245228;23;20082;-71
2022/03/19 03:12:34;;;;;;;;;;;12.80;99.90;;;;;;6245029;23;19935;-72
2022/03/19 03:15:00;;;;;;;;;;;12.90;99.90;;;;;;6218265;23;19979;-71
2022/03/19 03:17:25;;;;;;;;;;;12.80;99.90;;;;;;6218097;23;20162;-71
2022/03/19 03:19:52;;;;;;;;;;;12.80;99.90;;;;;;6217770;23;19982;-72
2022/03/19 03:22:18;;;;;;;;;;;12.70;99.90;;;;;;6245370;23;19986;-71
2022/03/19 03:24:44;;;;;;;;;;;12.70;99.90;;;;;;6245136;23;19904;-73
2022/03/19 03:27:09;;;;;;;;;;;12.70;99.90;;;;;;6245014;23;19907;-71
2022/03/19 03:29:35;;;;;;;;;;;12.60;99.90;;;;;;6245566;23;19931;-71
2022/03/19 03:32:01;;;;;;;;;;;12.70;99.90;;;;;;6244930;23;19908;-67
2022/03/19 03:34:27;;;;;;;;;;;12.60;99.90;;;;;;6245638;23;19908;-72
2022/03/19 03:36:53;;;;;;;;;;;12.70;99.90;;;;;;6245092;23;19904;-71
2022/03/19 03:39:20;;;;;;;;;;;12.60;99.90;;;;;;6244992;23;19904;-72
2022/03/19 03:41:47;;;;;;;;;;;12.60;99.90;;;;;;6244743;23;19904;-71
2022/03/19 03:44:13;;;;;;;;;;;12.60;99.90;;;;;;6245170;23;19903;-71
2022/03/19 03:46:39;;;;;;;;;;;12.70;99.90;;;;;;6244962;23;20340;-72
2022/03/19 03:49:05;;;;;;;;;;;12.70;99.90;;;;;;6245419;23;19915;-72
2022/03/19 03:51:31;;;;;;;;;;;12.60;99.90;;;;;;6244225;23;19991;-71
2022/03/19 03:53:57;;;;;;;;;;;12.60;99.90;;;;;;6244503;23;20258;-71
2022/03/19 03:56:22;;;;;;;;;;;12.70;99.90;;;;;;6243798;23;20293;-72
2022/03/19 03:58:48;;;;;;;;;;;12.70;99.90;;;;;;6244558;23;19904;-72
2022/03/19 04:01:16;;;;;;;;;;;12.60;99.90;;;;;;6245370;23;19949;-71
2022/03/19 04:03:41;;;;;;;;;;;12.60;99.90;;;;;;6245176;23;20232;-70
2022/03/19 04:06:10;;;;;;;;;;;12.70;99.90;;;;;;6245281;23;19978;-71
2022/03/19 04:08:36;;;;;;;;;;;12.60;99.90;;;;;;6245192;23;19912;-71
2022/03/19 04:11:02;;;;;;;;;;;12.70;99.90;;;;;;6245333;23;19919;-70
2022/03/19 04:13:28;;;;;;;;;;;12.70;99.90;;;;;;6245595;23;19995;-71
2022/03/19 04:15:53;;;;;;;;;;;12.60;99.90;;;;;;6246243;23;19914;-71
2022/03/19 04:18:19;;;;;;;;;;;12.60;99.90;;;;;;6245734;23;19904;-71
2022/03/19 04:20:45;;;;;;;;;;;12.70;99.90;;;;;;6245328;23;19919;-70
2022/03/19 04:23:11;;;;;;;;;;;12.60;99.90;;;;;;6245502;23;19903;-72
2022/03/19 04:25:37;;;;;;;;;;;12.60;99.90;;;;;;6219301;23;19903;-71
2022/03/19 04:28:03;;;;;;;;;;;12.60;99.90;;;;;;6246978;23;19903;-71
2022/03/19 04:30:29;;;;;;;;;;;12.70;99.90;;;;;;6246095;23;19918;-71
2022/03/19 04:32:57;;;;;;;;;;;12.70;99.90;;;;;;6245918;23;19914;-71
2022/03/19 04:38:12;;;;;;;;;;;12.70;99.90;;;;;;6245899;23;20378;-72
2022/03/19 04:40:38;;;;;;;;;;;12.70;99.90;;;;;;6245954;23;19903;-71
2022/03/19 04:43:04;;;;;;;;;;;12.60;99.90;;;;;;6245590;23;19910;-71
2022/03/19 04:45:30;;;;;;;;;;;12.60;99.90;;;;;;6218746;23;20233;-71
2022/03/19 04:47:56;;;;;;;;;;;12.60;99.90;;;;;;6246229;23;20371;-71
2022/03/19 04:50:22;;;;;;;;;;;12.60;99.90;;;;;;6245413;23;19994;-70
2022/03/19 04:52:49;;;;;;;;;;;12.60;99.90;;;;;;6245656;23;19903;-72
2022/03/19 04:55:15;;;;;;;;;;;12.60;99.90;;;;;;6218517;23;20296;-71
2022/03/19 04:57:41;;;;;;;;;;;12.60;99.90;;;;;;6246142;23;19911;-71
2022/03/19 05:00:08;;;;;;;;;;;12.60;99.90;;;;;;6245852;23;19904;-71
2022/03/19 05:02:44;;;;;;;;;;;12.60;99.90;;;;;;6245809;23;19911;-72
2022/03/19 05:05:10;;;;;;;;;;;12.50;99.90;;;;;;6245557;23;19983;-71
2022/03/19 05:07:36;;;;;;;;;;;12.50;99.90;;;;;;6245930;23;20278;-71
2022/03/19 05:12:47;;;;;;;;;;;12.50;99.90;;;;;;6245985;23;19964;-71
2022/03/19 05:15:16;;;;;;;;;;;12.60;99.90;;;;;;6218553;23;20045;-71
2022/03/19 05:17:43;;;;;;;;;;;12.50;99.90;;;;;;6246055;23;19908;-71
2022/03/19 05:20:10;;;;;;;;;;;12.60;99.90;;;;;;6218836;23;19965;-71
2022/03/19 05:22:36;;;;;;;;;;;12.60;99.90;;;;;;6246809;23;20017;-70
2022/03/19 05:25:02;;;;;;;;;;;12.60;99.90;;;;;;6246127;23;20285;-71
2022/03/19 05:27:28;;;;;;;;;;;12.60;99.90;;;;;;6246192;23;19942;-71
2022/03/19 05:29:54;;;;;;;;;;;12.60;99.90;;;;;;6246585;23;19916;-71
2022/03/19 05:32:39;;;;;;;;;;;12.60;99.90;;;;;;6219031;23;19982;-71
2022/03/19 05:35:05;;;;;;;;;;;12.60;99.90;;;;;;6246123;23;19908;-71
2022/03/19 05:37:31;;;;;;;;;;;12.60;99.90;;;;;;6246650;23;20313;-71
2022/03/19 05:39:58;;;;;;;;;;;12.60;99.90;;;;;;6246045;23;20312;-71
2022/03/19 05:42:24;;;;;;;;;;;12.70;99.90;;;;;;6246643;23;19910;-71
2022/03/19 05:44:50;;;;;;;;;;;12.70;99.90;;;;;;6246022;23;19903;-70
2022/03/19 05:47:16;;;;;;;;;;;12.70;99.90;;;;;;6246172;23;19942;-71
2022/03/19 05:49:42;;;;;;;;;;;12.70;99.90;;;;;;6246502;23;19997;-71
2022/03/19 05:52:08;;;;;;;;;;;12.70;99.90;;;;;;6245912;23;19904;-71
2022/03/19 05:54:34;;;;;;;;;;;12.60;99.90;;;;;;6245910;23;19957;-71
2022/03/19 05:56:59;;;;;;;;;;;12.70;99.90;;;;;;6245920;23;19904;-71
2022/03/19 05:59:25;;;;;;;;;;;12.70;99.90;;;;;;6245909;23;19962;-70
2022/03/19 06:01:51;;;;;;;;;;;12.70;99.90;;;;;;6245964;23;19903;-71
2022/03/19 06:04:17;;;;;;;;;;;12.80;99.90;;;;;;6246652;23;19950;-71
2022/03/19 06:06:43;;;;;;;;;;;12.70;99.90;;;;;;6245809;23;20224;-71
2022/03/19 06:09:08;;;;;;;;;;;12.70;99.90;;;;;;6246164;23;19912;-73
2022/03/19 06:11:34;;;;;;;;;;;12.70;99.90;;;;;;6245467;23;19991;-71
2022/03/19 06:14:00;;;;;;;;;;;12.70;99.90;;;;;;6245747;23;19926;-71
2022/03/19 06:16:26;;;;;;;;;;;12.70;99.90;;;;;;6246263;23;19903;-71
2022/03/19 06:18:52;;;;;;;;;;;12.70;99.90;;;;;;6219436;23;19904;-73
2022/03/19 06:21:18;;;;;;;;;;;12.70;99.90;;;;;;6247308;23;20090;-73
2022/03/19 06:23:47;;;;;;;;;;;12.80;99.90;;;;;;6247593;23;19910;-75
2022/03/19 06:26:14;;;;;;;;;;;12.80;99.90;;;;;;6247574;23;19903;-73
2022/03/19 06:28:40;;;;;;;;;;;12.90;99.90;;;;;;6247282;23;19951;-73
2022/03/19 06:31:05;;;;;;;;;;;12.80;99.90;;;;;;6246729;23;19918;-73
2022/03/19 06:33:41;;;;;;;;;;;12.90;99.90;;;;;;6219374;23;19965;-74
2022/03/19 06:38:51;;;;;;;;;;;12.90;99.90;;;;;;6246709;23;19935;-73
2022/03/19 06:41:17;;;;;;;;;;;12.80;99.90;;;;;;6246213;23;19904;-73
2022/03/19 06:43:43;;;;;;;;;;;12.80;99.90;;;;;;6245787;23;20317;-73
2022/03/19 06:46:09;;;;;;;;;;;12.90;99.90;;;;;;6245194;23;19903;-73
2022/03/19 06:48:35;;;;;;;;;;;12.80;99.90;;;;;;6245420;23;20379;-75
2022/03/19 06:51:01;;;;;;;;;;;12.80;99.90;;;;;;6245059;23;19950;-73
2022/03/19 06:53:27;;;;;;;;;;;12.80;99.90;;;;;;6245764;23;19903;-73
2022/03/19 06:55:53;;;;;;;;;;;12.80;99.90;;;;;;6245371;23;19904;-72
2022/03/19 06:58:43;;;;;;;;;;;12.80;99.90;;;;;;6245500;23;19926;-73
2022/03/19 07:01:26;;;;;;;;;;;12.70;99.90;;;;;;6246013;23;19904;-73
2022/03/19 07:03:55;;;;;;;;;;;12.80;99.90;;;;;;6243840;23;20193;-72
2022/03/19 07:06:20;;;;;;;;;;;12.80;99.90;;;;;;6217833;23;20062;-73
2022/03/19 07:08:46;;;;;;;;;;;12.90;99.90;;;;;;6244922;23;19907;-72
2022/03/19 07:11:12;;;;;;;;;;;12.80;99.90;;;;;;6218194;23;19903;-73
2022/03/19 07:13:44;;;;;;;;;;;12.80;99.90;;;;;;6245501;23;19911;-73
2022/03/19 07:16:12;;;;;;;;;;;12.80;99.90;;;;;;6245440;23;19942;-73
2022/03/19 07:18:37;;;;;;;;;;;12.80;99.90;;;;;;6245385;23;19910;-70
2022/03/19 07:21:04;;;;;;;;;;;12.80;99.90;;;;;;6245167;23;19916;-73
2022/03/19 07:23:29;;;;;;;;;;;12.80;99.90;;;;;;6246061;23;19990;-74
2022/03/19 07:25:59;;;;;;;;;;;12.90;99.90;;;;;;6219025;23;19971;-71
2022/03/19 07:28:26;;;;;;;;;;;12.90;99.90;;;;;;6246123;23;20300;-72
2022/03/19 07:30:52;;;;;;;;;;;12.90;99.90;;;;;;6246416;23;20331;-71
2022/03/19 07:33:17;;;;;;;;;;;12.80;99.90;;;;;;6246345;23;19904;-75
2022/03/19 07:35:43;;;;;;;;;;;12.80;99.90;;;;;;6246724;23;19903;-73
2022/03/19 07:38:11;;;;;;;;;;;12.70;99.90;;;;;;6246177;23;19903;-73
2022/03/19 07:43:22;;;;;;;;;;;12.70;99.90;;;;;;6246656;23;19957;-73
2022/03/19 07:45:48;;;;;;;;;;;12.70;99.90;;;;;;6246266;23;19949;-73
2022/03/19 07:48:13;;;;;;;;;;;12.70;99.90;;;;;;6246754;23;19904;-75
2022/03/19 07:50:39;;;;;;;;;;;12.70;99.90;;;;;;6246130;23;19919;-73
2022/03/19 07:53:06;;;;;;;;;;;12.70;99.90;;;;;;6246653;23;19911;-73
2022/03/19 07:55:32;;;;;;;;;;;12.70;99.90;;;;;;6218988;23;19939;-73
2022/03/19 07:57:58;;;;;;;;;;;12.70;99.90;;;;;;6245834;23;20102;-72
2022/03/19 08:00:42;;;;;;;;;;;12.70;99.90;;;;;;6245715;23;19962;-72
2022/03/19 08:03:08;;;;;;;;;;;12.70;99.90;;;;;;6246157;23;19986;-72
2022/03/19 08:05:33;;;;;;;;;;;12.70;99.90;;;;;;6245472;23;19946;-73
2022/03/19 08:07:59;;;;;;;;;;;12.70;99.90;;;;;;6245339;23;19904;-74
2022/03/19 08:10:25;;;;;;;;;;;12.60;99.90;;;;;;6218510;23;19922;-73
2022/03/19 08:12:53;;;;;;;;;;;12.70;99.90;;;;;;6245568;23;19904;-72
2022/03/19 08:15:19;;;;;;;;;;;12.60;99.90;;;;;;6245537;23;19956;-73
2022/03/19 08:17:45;;;;;;;;;;;12.60;99.90;;;;;;6245606;23;19903;-73
2022/03/19 08:20:15;;;;;;;;;;;12.60;99.90;;;;;;6218293;23;19957;-75
2022/03/19 08:22:41;;;;;;;;;;;12.50;99.90;;;;;;6245562;23;19934;-74
2022/03/19 08:25:07;;;;;;;;;;;12.60;99.90;;;;;;6246415;23;19904;-73
2022/03/19 08:27:33;;;;;;;;;;;12.60;99.90;;;;;;6245630;23;19904;-73
2022/03/19 08:29:59;;;;;;;;;;;12.60;99.90;;;;;;6246083;23;20350;-73
2022/03/19 08:32:25;;;;;;;;;;;12.60;99.90;;;;;;6218524;23;20002;-73
2022/03/19 08:34:51;;;;;;;;;;;12.60;99.90;;;;;;6245896;23;19911;-73
2022/03/19 08:37:17;;;;;;;;;;;12.60;99.90;;;;;;6218663;23;20001;-72
2022/03/19 08:42:27;;;;;;;;;;;12.60;99.90;;;;;;6245043;23;19910;-72
2022/03/19 08:44:56;;;;;;;;;;;12.60;99.90;;;;;;6245615;23;19904;-73
2022/03/19 08:47:22;;;;;;;;;;;12.80;99.90;;;;;;6244885;23;19939;-72
2022/03/19 08:49:48;;;;;;;;;;;12.80;99.90;;;;;;6245203;23;19919;-73
2022/03/19 08:52:13;;;;;;;;;;;12.70;99.90;;;;;;6244380;23;19904;-72
2022/03/19 08:54:39;;;;;;;;;;;12.80;99.90;;;;;;6244199;23;19905;-71
2022/03/19 08:57:05;;;;;;;;;;;12.70;99.90;;;;;;6244156;23;19973;-72
2022/03/19 08:59:31;;;;;;;;;;;12.70;99.90;;;;;;6243898;23;19907;-72
2022/03/19 09:01:58;;;;;;;;;;;12.60;99.90;;;;;;6244326;23;19903;-73
2022/03/19 09:04:24;;;;;;;;;;;12.60;99.90;;;;;;6244317;23;20321;-73
2022/03/19 09:06:50;;;;;;;;;;;12.60;99.90;;;;;;6217626;23;19912;-71
2022/03/19 09:09:17;;;;;;;;;;;12.60;99.90;;;;;;6244762;23;19916;-73
2022/03/19 09:11:43;;;;;;;;;;;12.50;99.90;;;;;;6245221;23;19991;-73
2022/03/19 09:14:09;;;;;;;;;;;12.60;99.90;;;;;;6217671;23;19903;-74
2022/03/19 09:16:35;;;;;;;;;;;12.70;99.90;;;;;;6245574;23;20224;-73
2022/03/19 09:19:02;;;;;;;;;;;12.70;99.90;;;;;;6245291;23;19915;-74
2022/03/19 09:21:29;;;;;;;;;;;12.80;99.90;;;;;;6245364;23;19939;-75
2022/03/19 09:23:56;;;;;;;;;;;12.80;99.90;;;;;;6245604;23;19923;-72
2022/03/19 09:26:22;;;;;;;;;;;12.70;99.90;;;;;;6244982;23;19974;-72
2022/03/19 09:28:48;;;;;;;;;;;12.80;99.90;;;;;;6217978;23;20317;-72
2022/03/19 09:31:15;;;;;;;;;;;12.90;99.90;;;;;;6244939;23;19987;-73
2022/03/19 09:33:42;;;;;;;;;;;12.80;99.90;;;;;;6246435;23;19903;-72
2022/03/19 09:36:07;;;;;;;;;;;12.80;99.90;;;;;;6245107;23;19904;-74
2022/03/19 09:38:33;;;;;;;;;;;12.80;99.90;;;;;;6245458;23;20029;-74
2022/03/19 09:40:59;;;;;;;;;;;12.70;99.90;;;;;;6245434;23;19903;-75
2022/03/19 09:43:26;;;;;;;;;;;12.70;99.90;;;;;;6245659;23;19904;-73
2022/03/19 09:45:54;;;;;;;;;;;12.70;99.90;;;;;;6245093;23;19903;-73
2022/03/19 09:48:20;;;;;;;;;;;12.70;99.90;;;;;;6244288;23;19904;-72
2022/03/19 09:51:03;;;;;;;;;;;12.70;99.90;;;;;;6244761;23;19969;-72
2022/03/19 09:53:29;;;;;;;;;;;12.80;99.90;;;;;;6244866;23;19914;-72
2022/03/19 09:55:57;;;;;;;;;;;12.80;99.90;;;;;;6246378;23;19908;-72
2022/03/19 09:58:24;;;;;;;;;;;12.80;99.90;;;;;;6246139;23;19908;-71
2022/03/19 10:00:50;;;;;;;;;;;12.70;99.90;;;;;;6246187;23;19903;-70
2022/03/19 10:03:17;;;;;;;;;;;12.80;99.90;;;;;;6246063;23;19962;-70
2022/03/19 10:08:37;;;;;;;;;;;12.80;99.90;;;;;;6246267;23;20037;-71
2022/03/19 10:11:06;;;;;;;;;;;12.90;99.90;;;;;;6246816;23;19979;-72
2022/03/19 10:13:33;;;;;;;;;;;12.80;99.90;;;;;;6246344;23;19904;-71
2022/03/19 10:15:59;;;;;;;;;;;12.90;99.90;;;;;;6246077;23;19904;-71
2022/03/19 10:18:28;;;;;;;;;;;13.00;99.90;;;;;;6246511;23;19911;-71
2022/03/19 10:20:54;;;;;;;;;;;12.90;99.90;;;;;;6246060;23;19923;-71
2022/03/19 10:23:39;;;;;;;;;;;12.90;99.90;;;;;;6245943;23;19939;-71
2022/03/19 10:26:05;;;;;;;;;;;12.90;99.90;;;;;;6218882;23;19904;-71
2022/03/19 10:28:33;;;;;;;;;;;12.90;99.90;;;;;;6245864;23;19953;-71
2022/03/19 10:30:59;;;;;;;;;;;12.90;99.90;;;;;;6245910;23;19908;-71
2022/03/19 10:33:30;;;;;;;;;;;12.90;99.90;;;;;;6245912;23;19975;-71
2022/03/19 10:36:06;;;;;;;;;;;12.90;99.90;;;;;;6245541;23;19922;-73
2022/03/19 10:38:40;;;;;;;;;;;12.90;99.90;;;;;;6245886;23;19986;-74
2022/03/19 10:41:05;;;;;;;;;;;12.90;99.90;;;;;;6218589;23;19903;-73
2022/03/19 10:43:32;;;;;;;;;;;12.90;99.90;;;;;;6245920;23;20333;-73
2022/03/19 10:45:58;;;;;;;;;;;12.90;99.90;;;;;;6245478;23;19910;-73
2022/03/19 10:48:26;;;;;;;;;;;12.90;99.90;;;;;;6218928;23;19911;-74
2022/03/19 10:50:52;;;;;;;;;;;12.90;99.90;;;;;;6245800;23;20170;-74
2022/03/19 10:53:19;;;;;;;;;;;12.90;99.90;;;;;;6245700;23;20380;-74
2022/03/19 10:55:45;;;;;;;;;;;12.80;99.90;;;;;;6245480;23;19990;-75
2022/03/19 10:58:11;;;;;;;;;;;12.70;99.90;;;;;;6245334;23;19935;-74
2022/03/19 11:00:36;;;;;;;;;;;12.60;99.90;;;;;;6244902;23;19908;-74
2022/03/19 11:03:34;;;;;;;;;;;12.60;99.90;;;;;;6242800;23;20023;-72
2022/03/19 11:06:04;;;;;;;;;;;12.60;99.90;;;;;;6092917;23;19905;-72
2022/03/19 11:08:30;;;;;;;;;;;12.70;99.90;;;;;;6092309;23;19917;-74
2022/03/19 11:10:58;;;;;;;;;;;12.70;99.90;;;;;;6068525;23;20009;-74
2022/03/19 11:13:25;;;;;;;;;;;12.70;99.90;;;;;;6092866;23;20279;-73
2022/03/19 11:15:54;;;;;;;;;;;12.90;99.90;;;;;;6092424;23;19974;-74
2022/03/19 11:18:21;;;;;;;;;;;13.00;99.90;;;;;;6091567;23;19905;-73
2022/03/19 11:20:47;;;;;;;;;;;13.10;99.90;;;;;;6091694;23;19921;-72
2022/03/19 11:23:14;;;;;;;;;;;13.20;99.90;;;;;;6092771;23;19985;-72
2022/03/19 11:25:50;;;;;;;;;;;13.10;99.90;;;;;;6069002;23;19909;-72
2022/03/19 11:28:16;;;;;;;;;;;13.30;99.90;;;;;;6068879;23;19909;-73
2022/03/19 11:30:46;;;;;;;;;;;13.50;99.90;;;;;;6093025;23;20305;-72
2022/03/19 11:33:15;;;;;;;;;;;13.50;99.90;;;;;;6093406;23;19905;-74
2022/03/19 11:35:42;;;;;;;;;;;13.50;99.90;;;;;;6069206;23;19906;-74
2022/03/19 11:38:16;;;;;;;;;;;13.50;99.90;;;;;;6093464;23;19972;-72
2022/03/19 11:40:45;;;;;;;;;;;13.40;99.90;;;;;;6106424;23;20250;-73
2022/03/19 11:43:16;;;;;;;;;;;13.30;99.90;;;;;;6184297;23;19911;-73
2022/03/19 11:45:51;;;;;;;;;;;13.30;99.90;;;;;;6184618;23;19936;-73
2022/03/19 11:48:36;;;;;;;;;;;13.30;99.90;;;;;;6184242;23;19950;-72
2022/03/19 11:51:20;;;;;;;;;;;13.40;99.90;;;;;;6184217;23;19912;-74
2022/03/19 11:53:50;;;;;;;;;;;13.40;99.90;;;;;;6184233;23;19908;-72
2022/03/19 11:56:19;;;;;;;;;;;13.50;99.90;;;;;;6184767;23;19911;-73
2022/03/19 11:58:46;;;;;;;;;;;13.40;99.90;;;;;;6184787;23;19929;-72
2022/03/19 12:01:14;;;;;;;;;;;13.50;99.90;;;;;;6183198;23;19949;-72
2022/03/19 12:03:58;;;;;;;;;;;13.40;99.90;;;;;;6183873;23;20038;-73
2022/03/19 12:06:30;;;;;;;;;;;13.30;99.90;;;;;;6184010;23;20286;-74
2022/03/19 12:08:56;;;;;;;;;;;13.20;99.90;;;;;;6185230;23;20039;-70
2022/03/19 12:11:22;;;;;;;;;;;13.20;99.90;;;;;;6184886;23;19904;-74
2022/03/19 12:13:49;;;;;;;;;;;13.10;99.90;;;;;;6184373;23;19915;-74
2022/03/19 12:16:33;;;;;;;;;;;13.20;99.90;;;;;;6183931;23;19908;-75
2022/03/19 12:18:59;;;;;;;;;;;13.20;99.90;;;;;;6184534;23;19958;-74
2022/03/19 12:21:25;;;;;;;;;;;13.20;99.90;;;;;;6224248;23;20240;-73
2022/03/19 12:24:14;;;;;;;;;;;13.10;99.90;;;;;;6245594;23;19919;-74
2022/03/19 12:26:52;;;;;;;;;;;13.10;99.90;;;;;;6245165;23;19950;-73
2022/03/19 12:29:19;;;;;;;;;;;13.10;99.90;;;;;;6218282;23;19915;-76
2022/03/19 12:31:47;;;;;;;;;;;13.10;99.90;;;;;;6245610;23;20254;-74
2022/03/19 12:34:17;;;;;;;;;;;13.10;99.90;;;;;;6218331;23;19910;-73
2022/03/19 12:36:44;;;;;;;;;;;13.10;99.90;;;;;;6245143;23;20328;-75
2022/03/19 12:39:10;;;;;;;;;;;13.10;99.90;;;;;;6245284;23;19938;-74
2022/03/19 12:41:36;;;;;;;;;;;12.90;99.90;;;;;;6245312;23;19923;-75
2022/03/19 12:44:06;;;;;;;;;;;12.90;99.90;;;;;;6245444;23;20228;-74
2022/03/19 12:46:33;;;;;;;;;;;12.90;99.90;;;;;;6244990;23;19903;-73
2022/03/19 12:49:12;;;;;;;;;;;12.90;99.90;;;;;;6245379;23;20347;-74
2022/03/19 12:51:39;;;;;;;;;;;13.00;99.90;;;;;;6244800;23;19908;-73
2022/03/19 12:54:28;;;;;;;;;;;13.00;99.90;;;;;;6246122;23;20338;-75
2022/03/19 12:56:57;;;;;;;;;;;13.00;99.90;;;;;;6245624;23;19993;-74
2022/03/19 12:59:29;;;;;;;;;;;12.90;99.90;;;;;;6245586;23;19978;-71
2022/03/19 13:01:55;;;;;;;;;;;13.00;99.90;;;;;;6245509;23;19903;-76
2022/03/19 13:04:22;;;;;;;;;;;13.00;99.90;;;;;;6245615;23;19903;-76
2022/03/19 13:06:48;;;;;;;;;;;13.00;99.90;;;;;;6246310;23;19904;-75
2022/03/19 13:09:15;;;;;;;;;;;13.10;99.90;;;;;;6245715;23;19991;-74
2022/03/19 13:11:45;;;;;;;;;;;13.20;99.90;;;;;;6245695;23;19904;-74
2022/03/19 13:14:14;;;;;;;;;;;13.00;99.90;;;;;;6245707;23;19910;-74
2022/03/19 13:16:43;;;;;;;;;;;13.00;99.90;;;;;;6246015;23;20328;-74
2022/03/19 13:19:15;;;;;;;;;;;13.10;99.90;;;;;;6246340;23;19911;-73
2022/03/19 13:21:42;;;;;;;;;;;13.10;99.90;;;;;;6245852;23;19916;-75
2022/03/19 13:24:09;;;;;;;;;;;13.10;99.90;;;;;;6245918;23;20309;-74
2022/03/19 13:26:35;;;;;;;;;;;13.20;99.90;;;;;;6246632;23;19919;-74
2022/03/19 13:29:03;;;;;;;;;;;13.20;99.90;;;;;;6247951;23;20323;-75
2022/03/19 13:31:32;;;;;;;;;;;13.10;99.90;;;;;;6248013;23;20300;-76
2022/03/19 13:33:59;;;;;;;;;;;13.00;99.90;;;;;;6248362;23;19910;-73
2022/03/19 13:36:26;;;;;;;;;;;13.00;99.90;;;;;;6248449;23;19904;-75
2022/03/19 13:39:00;;;;;;;;;;;12.90;99.90;;;;;;6247957;23;19983;-75
2022/03/19 13:41:26;;;;;;;;;;;12.80;99.90;;;;;;6248497;23;20305;-75
2022/03/19 13:43:52;;;;;;;;;;;12.90;99.90;;;;;;6247975;23;20261;-75
2022/03/19 13:46:20;;;;;;;;;;;12.80;99.90;;;;;;6248657;23;19903;-76
2022/03/19 13:48:47;;;;;;;;;;;12.80;99.90;;;;;;6247782;23;20010;-74
2022/03/19 13:51:13;;;;;;;;;;;12.80;99.90;;;;;;6248488;23;19931;-76
2022/03/19 13:53:40;;;;;;;;;;;12.70;99.90;;;;;;6247960;23;19911;-75
2022/03/19 13:56:05;;;;;;;;;;;12.70;99.90;;;;;;6248533;23;19908;-74
2022/03/19 13:58:31;;;;;;;;;;;12.70;99.90;;;;;;6247860;23;19907;-74
2022/03/19 14:00:57;;;;;;;;;;;12.70;99.90;;;;;;6248391;23;19903;-75
2022/03/19 14:03:24;;;;;;;;;;;12.70;99.90;;;;;;6248194;23;19903;-76
2022/03/19 14:05:51;;;;;;;;;;;12.60;99.90;;;;;;6248178;23;19926;-76
2022/03/19 14:08:18;;;;;;;;;;;12.40;99.90;;;;;;6247751;23;20328;-75
2022/03/19 14:10:48;;;;;;;;;;;12.50;99.90;;;;;;6248245;23;19912;-75
2022/03/19 14:13:18;;;;;;;;;;;12.60;99.90;;;;;;6247824;23;20317;-76
2022/03/19 14:15:48;;;;;;;;;;;12.60;99.90;;;;;;6220773;23;19939;-76
2022/03/19 14:18:24;;;;;;;;;;;12.60;99.90;;;;;;6248309;23;19911;-75
2022/03/19 14:20:50;;;;;;;;;;;12.60;99.90;;;;;;6247483;23;19911;-75
2022/03/19 14:23:17;;;;;;;;;;;12.60;99.90;;;;;;6247698;23;19907;-76
2022/03/19 14:25:44;;;;;;;;;;;12.60;99.90;;;;;;6248107;23;19904;-76
2022/03/19 14:28:10;;;;;;;;;;;12.70;99.90;;;;;;6247438;23;19903;-74
2022/03/19 14:30:37;;;;;;;;;;;12.90;99.90;;;;;;6247989;23;19912;-74
2022/03/19 14:33:03;;;;;;;;;;;13.00;99.90;;;;;;6220570;23;19903;-75
2022/03/19 14:35:47;;;;;;;;;;;13.00;99.90;;;;;;6247543;23;19904;-74
2022/03/19 14:38:18;;;;;;;;;;;12.90;99.90;;;;;;6248167;23;19903;-74
2022/03/19 14:40:44;;;;;;;;;;;12.90;99.90;;;;;;6247053;23;19985;-74